Flight Track Log - Related Links

Times and Time Zones

All times are in EDT time to prevent confusion due to time zone crossing. See the DAL4165 flight status page for this flight to view local times or setup timezone preferences in your user account.

Time Position Orientation Groundspeed Altitude Reporting Facility
EDT Latitude Longitude Course Direction KTS MPH feet Rate Location/Type
Mon 07:18:23 PM 35.4103 -97.5894 14° North 167 192 2,100  Level Fort Worth Center
Mon 07:18:47 PM 35.4269 -97.5842 14° North 169 194 2,800 1,786 Climbing Fort Worth Center
Mon 07:19:47 PM 35.4292 -97.5156 88° East 230 265 4,600 1,983 Climbing Fort Worth Center
Mon 07:20:48 PM 35.4167 -97.4236 99° East 288 331 6,800 2,220 Climbing Fort Worth Center
Mon 07:21:27 PM 35.4186 -97.3525 88° East 304 350 8,300 2,424 Climbing Fort Worth Center
Mon 07:22:27 PM 35.4208 -97.2403 89° East 316 364 10,800 1,600 Climbing Fort Worth Center
Mon 07:23:27 PM 35.4183 -97.1106 91° East 343 395 11,500 1,300 Climbing Fort Worth Center
Mon 07:24:27 PM 35.4181 -96.9678 90° East 387 445 13,400 2,000 Climbing Fort Worth Center
Mon 07:25:27 PM 35.4172 -96.8150 90° East 419 482 15,500 2,050 Climbing Fort Worth Center
Mon 07:26:27 PM 35.4164 -96.6647 90° East 436 502 17,500 1,950 Climbing Fort Worth Center
Mon 07:27:27 PM 35.4156 -96.5042 90° East 451 519 19,400 1,650 Climbing Fort Worth Center
Mon 07:28:27 PM 35.4142 -96.3439 91° East 461 531 20,800 1,450 Climbing Fort Worth Center
Mon 07:29:27 PM 35.4147 -96.1833 90° East 466 536 22,300 1,350 Climbing Fort Worth Center
Mon 07:30:27 PM 35.4131 -96.0128 91° East 478 550 23,500 1,200 Climbing Fort Worth Center
Mon 07:31:27 PM 35.4153 -95.8597 89° East 491 565 24,700 1,150 Climbing Fort Worth Center
Mon 07:32:27 PM 35.4111 -95.6867 92° East 497 572 25,800 1,150 Climbing Fort Worth Center
Mon 07:33:27 PM 35.4358 -95.5156 80° East 502 578 27,000 700 Climbing Fort Worth Center
Mon 07:34:27 PM 35.4875 -95.3564 68° East 494 568 27,200 400 Climbing Fort Worth Center
Mon 07:34:42 PM 35.4886 -95.3164 88° East 507 583 27,500 1,120 Climbing Memphis Center
Mon 07:35:42 PM 35.4703 -95.1444 97° East 507 583 28,600 750 Climbing Memphis Center
Mon 07:36:42 PM 35.4542 -94.9678 96° East 507 583 29,000 200 Climbing Memphis Center
Mon 07:37:42 PM 35.4375 -94.7961 97° East 524 603 29,000 500 Level Memphis Center
Mon 07:38:42 PM 35.4225 -94.6222 96° East 524 603 30,000 1,000 Climbing Memphis Center
Mon 07:39:42 PM 35.4056 -94.4481 97° East 519 597 31,000 1,150 Climbing Memphis Center
Mon 07:40:42 PM 35.3861 -94.2714 98° East 519 597 32,300 1,000 Climbing Memphis Center
Mon 07:41:42 PM 35.3769 -94.0978 94° East 524 603 33,000 900 Climbing Memphis Center
Mon 07:42:42 PM 35.3611 -93.9239 96° East 524 603 34,100 1,000 Climbing Memphis Center
Mon 07:43:42 PM 35.3492 -93.7503 95° East 518 596 35,000 450 Climbing Memphis Center
Mon 07:44:42 PM 35.3353 -93.5742 95° East 518 596 35,000  Level Memphis Center
Mon 07:45:42 PM 35.3231 -93.3956 95° East 524 603 35,000  Level Memphis Center
Mon 07:46:42 PM 35.3108 -93.2017 94° East 519 597 35,000  Level Memphis Center
Mon 07:47:42 PM 35.2942 -93.0181 96° East 528 608 35,000  Level Memphis Center
Mon 07:48:42 PM 35.2831 -92.8397 94° East 536 617 35,000  Level Memphis Center
Mon 07:49:42 PM 35.2639 -92.6458 97° East 546 628 35,000  Level Memphis Center
Mon 07:50:42 PM 35.2483 -92.4675 96° East 554 638 35,000  Level Memphis Center
Mon 07:51:42 PM 35.2325 -92.2889 96° East 543 625 35,000  Level Memphis Center
Mon 07:52:42 PM 35.2183 -92.1058 95° East 538 619 35,000  Level Memphis Center
Mon 07:53:42 PM 35.2042 -91.9275 96° East 538 619 35,000  Level Memphis Center
Mon 07:54:42 PM 35.1875 -91.7469 96° East 538 619 35,000  Level Memphis Center
Mon 07:55:42 PM 35.1725 -91.5689 96° East 538 619 35,000  Level Memphis Center
Mon 07:56:42 PM 35.1556 -91.3883 96° East 538 619 35,000  Level Memphis Center
Mon 07:57:42 PM 35.1400 -91.2103 96° East 533 613 35,000  Level Memphis Center
Mon 07:58:42 PM 35.1225 -91.0300 97° East 538 619 35,000  Level Memphis Center
Mon 07:59:42 PM 35.1044 -90.8444 97° East 538 619 35,000  Level Memphis Center
Mon 08:00:42 PM 35.0842 -90.6617 98° East 538 619 35,000  Level Memphis Center
Mon 08:01:42 PM 35.0678 -90.4764 96° East 543 625 35,000  Level Memphis Center
Mon 08:02:42 PM 35.0492 -90.2911 97° East 543 625 35,000  Level Memphis Center
Mon 08:03:42 PM 35.0322 -90.1264 97° East 543 625 35,000  Level Memphis Center
Mon 08:04:42 PM 35.0150 -89.9439 97° East 543 625 35,000  Level Memphis Center
Mon 08:05:42 PM 34.9914 -89.7539 99° East 548 631 35,000  Level Memphis Center
Mon 08:06:42 PM 34.9547 -89.5464 102° East 564 649 35,000  Level Memphis Center
Mon 08:07:42 PM 34.9242 -89.3642 102° East 559 643 35,000  Level Memphis Center
Mon 08:08:42 PM 34.8975 -89.1847 100° East 543 625 35,000  Level Memphis Center
Mon 08:09:42 PM 34.8683 -89.0031 101° East 549 632 35,000  Level Memphis Center
Mon 08:10:42 PM 34.8414 -88.8211 100° East 544 626 35,000  Level Memphis Center
Mon 08:11:42 PM 34.8117 -88.6372 101° East 544 626 35,000  Level Memphis Center
Mon 08:12:42 PM 34.7867 -88.4808 101° East 544 626 35,000  Level Memphis Center
Mon 08:13:42 PM 34.7586 -88.2994 101° East 536 617 35,000  Level Memphis Center
Mon 08:14:42 PM 34.7283 -88.1108 101° East 548 631 35,000  Level Memphis Center
Mon 08:15:42 PM 34.6997 -87.9294 101° East 557 641 35,000 -150 Level Memphis Center
Mon 08:16:42 PM 34.6731 -87.7461 100° East 557 641 34,700 -784 Descending Memphis Center
Mon 08:18:15 PM 34.6236 -87.4489 101° East 556 640 33,000 -667 Descending Atlanta Center
Mon 08:19:15 PM 34.5889 -87.2683 103° East 551 634 33,000  Level Atlanta Center
Mon 08:20:15 PM 34.5558 -87.0931 103° East 541 623 33,000  Level Atlanta Center
Mon 08:21:15 PM 34.5225 -86.9153 103° East 535 616 33,000  Level Atlanta Center
Mon 08:22:15 PM 34.4867 -86.7403 104° East 530 610 33,000  Level Atlanta Center
Mon 08:23:15 PM 34.4531 -86.5656 103° East 530 610 33,000 -1,050 Level Atlanta Center
Mon 08:24:15 PM 34.4189 -86.3906 103° East 530 610 30,900 -2,350 Descending Atlanta Center
Mon 08:25:15 PM 34.3844 -86.2186 104° East 530 610 28,300 -2,550 Descending Atlanta Center
Mon 08:26:15 PM 34.3536 -86.0592 103° East 516 594 25,800 -2,400 Descending Atlanta Center
Mon 08:27:15 PM 34.3228 -85.9050 104° East 491 565 23,500 -2,267 Descending Atlanta Center
Mon 08:29:15 PM 34.2622 -85.6022 104° East 464 534 19,000 -2,133 Descending Atlanta Center
Mon 08:30:15 PM 34.2347 -85.4583 103° East 446 513 17,100 -1,700 Descending Atlanta Center
Mon 08:31:15 PM 34.2050 -85.3247 105° East 424 488 15,600 -1,350 Descending Atlanta Center
Mon 08:32:15 PM 34.1772 -85.1839 103° East 424 488 14,400 -1,300 Descending Atlanta Center
Mon 08:33:15 PM 34.1322 -85.0803 118° Southeast 403 464 13,000 -750 Descending Atlanta Center
Mon 08:34:15 PM 34.0703 -85.0017 134° Southeast 360 414 12,900 -650 Descending Atlanta Center
Mon 08:35:15 PM 34.0081 -84.9258 135° Southeast 328 377 11,700 -1,400 Descending Atlanta Center
Mon 08:36:15 PM 33.9522 -84.8503 132° Southeast 313 360 10,100 -1,350 Descending Atlanta Center
Mon 08:37:15 PM 33.8922 -84.7869 139° Southeast 293 337 9,000 -779 Descending Atlanta Center
Mon 08:37:32 PM 33.8667 -84.7667 147° Southeast 284 327 9,100 -578 Climbing Atlanta TRACON
Mon 08:38:38 PM 33.7833 -84.7333 162° South 289 333 8,200 -850 Descending Atlanta TRACON
Mon 08:39:32 PM 33.7333 -84.6667 132° Southeast 288 331 7,400 -1,900 Descending Atlanta TRACON
Mon 08:40:38 PM 33.6833 -84.5833 126° Southeast 287 330 4,400 -2,200 Descending Atlanta TRACON
Mon 08:41:32 PM 33.6500 -84.5167 121° Southeast 236 272 3,000 -1,526 Descending Atlanta TRACON
Mon 08:42:32 PM 33.6500 -84.4667 90° East 169 194 1,500 -1,500 Descending Atlanta TRACON
Mon 08:44:00 PM 33.6367 -84.4279 North  Level Estimated
Mon 08:51:00 PM 33.6367 -84.4279 North  Level Estimated

Login

Don't have an account? Register now (free) for customized features, flight alerts, and more!